Time;durP1;ratioP1;P1;durP2;ratioP2;P2;SDS_P1;SDS_P2;PMS_P1;PMS_P2;Temp;Humidity;BMP_temperature;BMP_pressure;BME280_temperature;BME280_humidity;BME280_pressure;Samples;Min_cycle;Max_cycle;Signal;HPM_P1;HPM_P2
2023/08/29 00:01:37;;;;;;;2.20;1.93;;;19.90;77.20;;;22.68;49.58;101108.19;5014158;28;20282;-65
2023/08/29 00:04:04;;;;;;;3.27;2.10;;;19.90;77.00;;;22.67;49.59;101101.22;5013965;28;20187;-65
2023/08/29 00:06:33;;;;;;;1.87;1.40;;;19.90;76.90;;;22.65;49.75;101092.59;5013747;28;20241;-65
2023/08/29 00:09:00;;;;;;;2.80;1.83;;;19.90;77.10;;;22.63;49.81;101099.25;5014136;28;20560;-67
2023/08/29 00:11:27;;;;;;;2.13;1.90;;;19.90;77.10;;;22.61;49.60;101101.34;5014088;28;20192;-66
2023/08/29 00:13:55;;;;;;;3.77;2.17;;;19.80;76.90;;;22.56;50.01;101094.00;5014065;28;20191;-65
2023/08/29 00:16:22;;;;;;;4.13;2.43;;;19.80;77.30;;;22.53;49.57;101094.53;5013870;28;20207;-65
2023/08/29 00:18:49;;;;;;;2.90;2.60;;;19.80;77.40;;;22.51;49.76;101088.56;5014331;28;20194;-66
2023/08/29 00:21:16;;;;;;;3.03;2.40;;;19.80;77.30;;;22.47;49.85;101079.38;5014379;28;20270;-66
2023/08/29 00:23:47;;;;;;;2.60;2.20;;;19.70;77.30;;;22.42;50.21;101073.94;5014331;28;20188;-66
2023/08/29 00:26:14;;;;;;;3.10;2.10;;;19.60;77.70;;;22.40;50.39;101068.00;5013759;28;20219;-66
2023/08/29 00:28:41;;;;;;;3.30;2.10;;;19.60;78.00;;;22.40;50.35;101067.19;5017358;28;20222;-66
2023/08/29 00:31:10;;;;;;;2.83;2.40;;;19.60;77.90;;;22.40;50.49;101072.53;5013899;28;20245;-66
2023/08/29 00:33:37;;;;;;;3.63;2.10;;;19.60;78.00;;;22.40;50.45;101067.19;5014462;28;20274;-66
2023/08/29 00:36:04;;;;;;;5.07;2.57;;;19.60;78.10;;;22.40;50.44;101068.00;5033282;28;20260;-66
2023/08/29 00:38:31;;;;;;;3.80;2.90;;;19.60;78.30;;;22.41;50.49;101069.63;5033560;28;20217;-65
2023/08/29 00:40:59;;;;;;;3.20;2.90;;;19.60;78.30;;;22.44;50.72;101065.66;5033728;28;20195;-66
2023/08/29 00:43:26;;;;;;;3.70;3.40;;;19.60;78.50;;;22.44;50.45;101063.75;5022632;28;20202;-66
2023/08/29 00:45:55;;;;;;;3.10;2.50;;;19.60;78.60;;;22.46;50.69;101061.66;5013358;28;20237;-66
2023/08/29 00:48:22;;;;;;;5.37;3.07;;;19.60;78.60;;;22.49;50.57;101066.53;5013855;28;20219;-66
2023/08/29 00:50:49;;;;;;;3.47;2.83;;;19.70;78.80;;;22.51;50.63;101059.03;5014198;28;20210;-66
2023/08/29 00:53:17;;;;;;;6.30;4.80;;;19.70;78.70;;;22.52;50.56;101055.31;5013763;28;20195;-66
2023/08/29 00:55:44;;;;;;;4.80;3.40;;;19.70;78.50;;;22.49;50.69;101055.78;5013737;28;20289;-67
2023/08/29 00:58:14;;;;;;;5.73;4.47;;;19.70;78.60;;;22.46;50.78;101055.47;5013959;28;20201;-66
2023/08/29 01:00:42;;;;;;;4.33;4.03;;;19.70;78.80;;;22.43;50.61;101056.78;5013445;28;20282;-67
2023/08/29 01:03:09;;;;;;;4.13;3.73;;;19.70;78.70;;;22.38;50.86;101064.75;5013869;28;20282;-66
2023/08/29 01:05:37;;;;;;;5.13;4.13;;;19.60;78.80;;;22.34;51.05;101057.44;5012193;28;20222;-66
2023/08/29 01:08:05;;;;;;;5.13;4.27;;;19.50;79.00;;;22.31;50.83;101061.41;5013616;28;20406;-66
2023/08/29 01:10:45;;;;;;;4.43;4.00;;;19.50;79.40;;;22.26;51.39;101058.66;5013587;28;20214;-66
2023/08/29 01:13:24;;;;;;;6.60;4.40;;;19.50;79.70;;;22.26;51.42;101047.91;5013367;28;20273;-66
2023/08/29 01:15:57;;;;;;;3.53;3.27;;;19.50;79.80;;;22.28;51.20;101048.47;5015238;28;20238;-66
2023/08/29 01:18:27;;;;;;;2.90;2.70;;;19.50;79.90;;;22.30;51.31;101049.03;5017521;28;20593;-66
2023/08/29 01:21:06;;;;;;;3.03;2.60;;;19.50;79.50;;;22.31;51.15;101041.81;5017602;28;20267;-66
2023/08/29 01:23:42;;;;;;;4.63;3.77;;;19.50;79.50;;;22.33;51.28;101043.19;5021050;28;20281;-66
2023/08/29 01:26:13;;;;;;;6.90;3.27;;;19.60;79.30;;;22.36;51.03;101042.72;5028391;28;20219;-66
2023/08/29 01:28:44;;;;;;;4.77;3.23;;;19.60;79.40;;;22.40;50.88;101051.91;5033912;28;20214;-66
2023/08/29 01:31:13;;;;;;;3.13;2.80;;;19.60;79.00;;;22.40;50.82;101046.53;5025935;28;20203;-66
2023/08/29 01:33:41;;;;;;;3.87;3.13;;;19.60;78.90;;;22.40;50.72;101056.44;5016940;28;20191;-66
2023/08/29 01:36:08;;;;;;;4.40;2.70;;;19.70;78.80;;;22.40;50.69;101061.81;5016824;28;20294;-66
2023/08/29 01:38:35;;;;;;;3.20;2.90;;;19.70;78.70;;;22.41;50.72;101068.81;5017212;28;20214;-66
2023/08/29 01:41:02;;;;;;;3.77;3.33;;;19.70;78.60;;;22.40;50.48;101073.38;5015759;28;20205;-66
2023/08/29 01:43:31;;;;;;;4.07;3.77;;;19.70;78.10;;;22.33;49.97;101083.44;5017336;28;20191;-66
2023/08/29 01:45:58;;;;;;;4.43;4.03;;;19.60;77.70;;;22.22;50.34;101103.13;4999912;28;20223;-66
2023/08/29 01:48:27;;;;;;;4.47;4.07;;;19.50;77.70;;;22.09;50.60;101103.41;5003685;28;20218;-66
2023/08/29 01:50:54;;;;;;;4.07;3.77;;;19.30;78.20;;;21.95;50.71;101108.25;5017398;28;20253;-66
2023/08/29 01:53:21;;;;;;;4.53;4.10;;;19.20;78.80;;;21.84;51.35;101111.81;5016885;28;20576;-66
2023/08/29 01:55:50;;;;;;;5.57;4.03;;;19.10;79.40;;;21.75;51.65;101120.44;5016461;28;20219;-66
2023/08/29 01:58:20;;;;;;;3.67;3.37;;;18.90;79.80;;;21.64;51.53;101115.91;5016627;28;20274;-66
2023/08/29 02:00:49;;;;;;;5.63;4.30;;;18.80;80.20;;;21.54;52.33;101111.97;5016950;28;20187;-66
2023/08/29 02:03:16;;;;;;;5.63;4.27;;;18.70;80.90;;;21.48;52.03;101107.59;5016883;28;20318;-70
2023/08/29 02:05:44;;;;;;;5.03;4.53;;;18.70;81.10;;;21.40;52.54;101105.25;5016375;28;20306;-66
2023/08/29 02:08:11;;;;;;;3.57;3.23;;;18.60;81.10;;;21.31;52.91;101101.31;5016463;28;20291;-66
2023/08/29 02:10:38;;;;;;;4.53;3.53;;;18.50;81.90;;;21.27;53.49;101115.44;5015608;28;20218;-66
2023/08/29 02:13:05;;;;;;;4.57;4.07;;;18.40;82.80;;;21.27;53.53;101120.78;5016588;28;20282;-66
2023/08/29 02:15:32;;;;;;;4.63;3.90;;;18.40;82.60;;;21.24;53.47;101124.75;5016268;28;20638;-66
2023/08/29 02:18:00;;;;;;;4.30;3.90;;;18.40;82.30;;;21.20;52.89;101128.13;5016643;28;20593;-67
2023/08/29 02:20:27;;;;;;;4.30;3.90;;;18.40;82.30;;;21.16;53.24;101125.09;5016864;28;20191;-65
2023/08/29 02:22:54;;;;;;;4.30;3.50;;;18.30;82.40;;;21.13;53.78;101122.91;5016287;28;20226;-65
2023/08/29 02:25:21;;;;;;;3.83;3.53;;;18.30;83.00;;;21.14;54.25;101127.19;5031534;28;20223;-65
2023/08/29 02:27:48;;;;;;;3.60;3.30;;;18.30;83.20;;;21.15;53.73;101120.81;5020691;28;20214;-65
2023/08/29 02:30:16;;;;;;;3.57;3.27;;;18.30;83.20;;;21.17;53.47;101121.38;5016026;28;20226;-65
2023/08/29 02:32:43;;;;;;;4.37;3.90;;;18.30;82.90;;;21.19;53.70;101119.28;5015680;28;20679;-65
2023/08/29 02:35:11;;;;;;;5.10;4.60;;;18.40;83.30;;;21.24;54.05;101114.03;5015562;28;20267;-66
2023/08/29 02:37:39;;;;;;;5.63;4.63;;;18.40;83.30;;;21.29;53.91;101116.00;5015631;28;20282;-66
2023/08/29 02:40:08;;;;;;;5.50;4.23;;;18.40;83.10;;;21.34;53.68;101110.75;5015996;28;20715;-65
2023/08/29 02:42:36;;;;;;;4.97;4.43;;;18.50;83.30;;;21.41;53.80;101114.13;5014790;28;20203;-65
2023/08/29 02:45:04;;;;;;;4.07;3.67;;;18.50;83.10;;;21.47;53.85;101115.84;5015572;28;20211;-65
2023/08/29 02:47:31;;;;;;;4.13;3.70;;;18.60;83.00;;;21.52;53.31;101111.41;5024937;28;20194;-66
2023/08/29 02:49:58;;;;;;;3.97;3.67;;;18.70;82.60;;;21.61;52.87;101116.41;5035675;28;20194;-66
2023/08/29 02:52:26;;;;;;;6.30;5.70;;;18.80;82.40;;;21.68;52.77;101111.72;5019167;28;20207;-65
2023/08/29 02:54:53;;;;;;;5.20;4.60;;;18.80;82.10;;;21.72;53.01;101115.53;5015121;28;20307;-66
2023/08/29 02:57:20;;;;;;;5.27;3.90;;;18.90;81.90;;;21.78;52.73;101111.91;5016053;28;20179;-65
2023/08/29 02:59:47;;;;;;;4.50;4.07;;;18.90;81.80;;;21.81;52.55;101112.25;5015594;28;20278;-66
2023/08/29 03:02:14;;;;;;;5.23;4.73;;;19.00;81.60;;;21.84;52.31;101110.97;5015808;28;20256;-66
2023/08/29 03:04:42;;;;;;;5.33;4.83;;;19.00;81.60;;;21.82;52.47;101105.03;5015064;28;20199;-66
2023/08/29 03:07:09;;;;;;;4.87;4.37;;;19.00;81.50;;;21.81;52.34;101106.88;5015252;28;20219;-66
2023/08/29 03:09:37;;;;;;;5.07;4.60;;;19.00;81.60;;;21.82;52.24;101100.47;5015394;28;20775;-65
2023/08/29 03:12:05;;;;;;;5.20;4.73;;;19.00;82.40;;;21.86;52.27;101100.84;5015101;28;20199;-65
2023/08/29 03:14:32;;;;;;;7.20;5.33;;;19.00;81.50;;;21.89;52.27;101095.00;5014783;28;20547;-65
2023/08/29 03:16:59;;;;;;;5.17;4.70;;;19.10;81.40;;;21.91;52.08;101090.22;5015265;28;20247;-66
2023/08/29 03:19:26;;;;;;;7.23;5.47;;;19.10;81.30;;;21.91;52.51;101095.56;5013416;28;20195;-65
2023/08/29 03:21:53;;;;;;;5.70;5.17;;;19.00;81.10;;;21.92;51.82;101100.69;5014805;28;20191;-65
2023/08/29 03:24:20;;;;;;;5.17;4.43;;;19.10;81.20;;;21.91;52.38;101096.41;5021620;28;20203;-65
2023/08/29 03:26:48;;;;;;;7.60;5.10;;;19.10;81.40;;;21.92;52.32;101089.16;5014750;28;20215;-65
2023/08/29 03:29:15;;;;;;;5.17;4.67;;;19.10;81.10;;;21.92;52.04;101086.47;5015204;28;20237;-65
2023/08/29 03:31:42;;;;;;;6.60;5.90;;;19.10;81.20;;;21.91;52.19;101085.66;5015375;28;20191;-66
2023/08/29 03:34:09;;;;;;;5.37;4.67;;;19.10;81.10;;;21.89;52.01;101081.59;5014540;28;20282;-65
2023/08/29 03:36:38;;;;;;;4.67;4.30;;;19.00;81.00;;;21.86;52.07;101079.41;5014623;28;20221;-65
2023/08/29 03:39:05;;;;;;;4.63;4.07;;;19.00;81.10;;;21.82;52.04;101072.88;5014395;28;20234;-65
2023/08/29 03:41:32;;;;;;;5.80;5.30;;;19.00;81.30;;;21.80;52.20;101073.09;5014798;28;20196;-65
2023/08/29 03:44:01;;;;;;;6.37;5.00;;;19.00;81.20;;;21.77;52.62;101075.44;5014565;28;20201;-67
2023/08/29 03:46:28;;;;;;;7.87;5.63;;;18.90;81.40;;;21.75;52.69;101074.88;5014588;28;20302;-65
2023/08/29 03:48:55;;;;;;;7.13;6.53;;;18.90;81.60;;;21.71;52.59;101074.53;5029109;28;20219;-65
2023/08/29 03:51:22;;;;;;;6.60;5.90;;;18.90;81.60;;;21.70;52.70;101077.47;5014404;28;20198;-65
2023/08/29 03:53:49;;;;;;;6.47;5.87;;;18.90;81.90;;;21.69;52.71;101081.19;5014320;28;20195;-65
2023/08/29 03:56:18;;;;;;;7.00;5.77;;;18.90;82.10;;;21.66;52.70;101082.47;5013994;28;20298;-65
2023/08/29 03:58:49;;;;;;;7.10;6.50;;;18.80;82.10;;;21.64;53.18;101081.06;5014141;28;20183;-65
2023/08/29 04:01:20;;;;;;;7.63;7.00;;;18.80;83.30;;;21.62;53.26;101084.00;5013917;28;20265;-65
2023/08/29 04:03:47;;;;;;;6.90;6.30;;;18.80;82.90;;;21.63;53.35;101084.81;5014305;28;20187;-67
2023/08/29 04:06:19;;;;;;;6.07;5.53;;;18.80;82.80;;;21.63;53.69;101084.81;5014210;28;20214;-65
2023/08/29 04:08:46;;;;;;;6.20;5.60;;;18.80;83.10;;;21.65;53.43;101080.03;5012921;28;20223;-66
2023/08/29 04:11:12;;;;;;;5.67;5.17;;;18.80;83.10;;;21.70;53.52;101082.81;5014561;28;20195;-65
2023/08/29 04:13:39;;;;;;;5.50;4.93;;;18.90;83.00;;;21.76;53.17;101079.16;5014754;28;20246;-67
2023/08/29 04:16:07;;;;;;;5.60;5.10;;;18.90;82.70;;;21.81;53.28;101082.75;5013673;28;20221;-67
2023/08/29 04:18:36;;;;;;;4.87;4.40;;;18.90;82.70;;;21.86;53.07;101076.72;5013547;28;20199;-67
2023/08/29 04:21:03;;;;;;;5.47;5.03;;;19.00;82.70;;;21.93;53.29;101072.00;4994818;28;20277;-65
2023/08/29 04:23:30;;;;;;;6.23;5.17;;;19.10;82.60;;;21.99;52.92;101061.13;5000006;28;20197;-66
2023/08/29 04:25:59;;;;;;;7.73;5.73;;;19.10;82.40;;;22.05;53.00;101059.38;5026376;28;20215;-65
2023/08/29 04:28:26;;;;;;;6.60;5.90;;;19.20;82.40;;;22.08;52.77;101050.84;5022427;28;20233;-65
2023/08/29 04:30:54;;;;;;;8.67;6.63;;;19.20;82.20;;;22.10;52.55;101051.41;4996306;28;20187;-65
2023/08/29 04:33:21;;;;;;;7.00;5.67;;;19.20;82.00;;;22.09;52.48;101050.59;5013980;28;20194;-66
2023/08/29 04:35:54;;;;;;;7.23;6.00;;;19.20;82.30;;;22.09;52.67;101049.78;5013204;28;20221;-65
2023/08/29 04:38:21;;;;;;;5.90;5.40;;;19.20;82.20;;;22.06;52.73;101044.91;5013647;28;20187;-65
2023/08/29 04:40:48;;;;;;;13.23;7.30;;;19.20;82.30;;;22.05;52.63;101045.97;5013616;28;20195;-65
2023/08/29 04:43:15;;;;;;;7.73;6.93;;;19.20;82.60;;;22.04;52.39;101047.00;5013521;28;20192;-66
2023/08/29 04:45:43;;;;;;;7.37;5.73;;;19.20;82.40;;;22.01;52.70;101042.16;5013623;28;20298;-66
2023/08/29 04:48:10;;;;;;;6.27;5.63;;;19.10;82.60;;;21.99;52.93;101039.69;5013400;28;20192;-66
2023/08/29 04:50:37;;;;;;;7.00;6.33;;;19.10;83.20;;;21.98;52.82;101037.25;5018347;28;20254;-66
2023/08/29 04:53:06;;;;;;;6.87;6.23;;;19.10;83.00;;;21.97;53.26;101030.25;5019790;28;20226;-66
2023/08/29 04:55:33;;;;;;;9.30;6.60;;;19.10;83.20;;;21.98;53.21;101034.56;5019717;28;20305;-66
2023/08/29 04:58:00;;;;;;;7.67;6.53;;;19.10;83.20;;;21.99;53.13;101038.88;5020164;28;20245;-68
2023/08/29 05:00:28;;;;;;;9.17;6.93;;;19.10;83.40;;;22.02;53.03;101035.72;5020443;28;20191;-66
2023/08/29 05:02:55;;;;;;;9.23;7.67;;;19.10;83.30;;;22.06;52.96;101029.63;5032715;28;20229;-66
2023/08/29 05:05:23;;;;;;;8.63;6.63;;;19.10;83.30;;;22.10;53.20;101027.28;5024459;28;20218;-66
2023/08/29 05:07:50;;;;;;;8.00;7.17;;;19.10;83.30;;;22.13;53.24;101026.81;5020240;28;20290;-66
2023/08/29 05:10:18;;;;;;;9.47;7.00;;;19.20;83.30;;;22.16;53.05;101023.59;5020093;28;20217;-66
2023/08/29 05:12:45;;;;;;;9.70;8.40;;;19.20;83.00;;;22.18;53.01;101032.22;5019138;28;20230;-66
2023/08/29 05:15:12;;;;;;;8.77;7.77;;;19.30;82.90;;;22.17;52.90;101022.56;5019500;28;20746;-66
2023/08/29 05:17:39;;;;;;;10.00;7.93;;;19.20;82.80;;;22.16;53.00;101024.44;5020211;28;20603;-66
2023/08/29 05:20:09;;;;;;;8.67;6.90;;;19.20;82.70;;;22.16;52.76;101023.59;5019828;28;20253;-67
2023/08/29 05:22:37;;;;;;;10.63;8.17;;;19.20;83.00;;;22.19;52.69;101023.13;5020853;28;20180;-66
2023/08/29 05:25:05;;;;;;;8.90;7.33;;;19.20;82.90;;;22.21;52.71;101016.47;5030683;28;20672;-66
2023/08/29 05:27:34;;;;;;;7.13;6.43;;;19.30;83.10;;;22.26;52.83;101013.03;5027402;28;20194;-66
2023/08/29 05:30:03;;;;;;;8.73;7.83;;;19.30;82.90;;;22.31;52.57;101010.44;5039066;28;20210;-68
2023/08/29 05:32:30;;;;;;;8.20;6.73;;;19.40;82.70;;;22.34;52.74;101009.97;5039387;28;20663;-67
2023/08/29 05:34:57;;;;;;;7.47;6.37;;;19.40;82.60;;;22.41;52.42;101015.97;5039231;28;20206;-66
2023/08/29 05:37:24;;;;;;;7.53;6.83;;;19.40;82.30;;;22.46;52.20;101008.00;5039120;28;20214;-67
2023/08/29 05:39:52;;;;;;;9.30;8.40;;;19.50;82.30;;;22.49;52.19;101012.84;5027800;28;20295;-67
2023/08/29 05:42:19;;;;;;;9.93;8.50;;;19.50;82.10;;;22.49;52.01;101023.59;5019597;28;20195;-67
2023/08/29 05:44:47;;;;;;;8.07;7.37;;;19.50;82.00;;;22.49;52.14;101025.50;5019238;28;20199;-65
2023/08/29 05:47:14;;;;;;;10.87;7.23;;;19.50;82.20;;;22.46;52.14;101018.75;5018823;28;20194;-66
2023/08/29 05:49:42;;;;;;;9.87;7.90;;;19.50;82.10;;;22.47;52.03;101019.53;5019758;28;20211;-66
2023/08/29 05:52:09;;;;;;;9.33;8.43;;;19.50;82.30;;;22.48;52.23;101021.97;5019246;28;20278;-67
2023/08/29 05:54:36;;;;;;;34.30;26.87;;;19.50;82.10;;;22.46;52.25;101021.41;5018683;28;20257;-66
2023/08/29 05:57:05;;;;;;;12.63;10.13;;;19.50;82.30;;;22.46;52.21;101024.09;5019283;28;20282;-67
2023/08/29 05:59:33;;;;;;;8.17;7.47;;;19.50;82.20;;;22.44;52.02;101025.41;5019190;28;20198;-66
2023/08/29 06:02:03;;;;;;;8.50;7.50;;;19.40;82.20;;;22.43;52.35;101027.28;5016332;28;20274;-67
2023/08/29 06:04:30;;;;;;;8.40;7.33;;;19.40;82.50;;;22.45;52.32;101019.78;5015701;28;20191;-66
2023/08/29 06:06:57;;;;;;;9.27;8.13;;;19.40;82.70;;;22.50;52.21;101008.31;5015352;28;20194;-67
2023/08/29 06:09:24;;;;;;;8.37;7.57;;;19.40;82.50;;;22.54;52.23;101012.94;5015988;28;20211;-67
2023/08/29 06:11:51;;;;;;;8.47;7.67;;;19.50;82.60;;;22.57;51.98;101014.31;5015641;28;20213;-67
2023/08/29 06:14:18;;;;;;;8.90;7.77;;;19.50;82.40;;;22.59;52.01;101010.34;5014848;28;20191;-69
2023/08/29 06:16:45;;;;;;;9.23;8.10;;;19.50;82.20;;;22.61;51.75;101010.09;5015381;28;20233;-66
2023/08/29 06:19:13;;;;;;;9.10;7.37;;;19.50;82.00;;;22.60;51.84;101013.84;5016106;28;20546;-67
2023/08/29 06:21:40;;;;;;;8.00;7.13;;;19.50;82.20;;;22.61;51.93;101015.47;5015838;28;20230;-67
2023/08/29 06:24:08;;;;;;;9.03;7.57;;;19.50;82.40;;;22.65;52.07;101012.06;5024084;28;20186;-67
2023/08/29 06:26:35;;;;;;;8.50;7.60;;;19.60;82.60;;;22.71;51.94;101015.63;5035053;28;20210;-69
2023/08/29 06:29:03;;;;;;;7.47;6.83;;;19.60;82.50;;;22.79;51.91;101012.53;5015347;28;20218;-67
2023/08/29 06:31:30;;;;;;;8.47;7.63;;;19.70;82.30;;;22.83;51.53;101019.00;5015614;28;20219;-67
2023/08/29 06:33:57;;;;;;;8.30;7.50;;;19.70;81.50;;;22.81;51.20;101013.91;5015773;28;20203;-67
2023/08/29 06:36:26;;;;;;;7.40;6.67;;;19.70;81.40;;;22.81;51.57;101021.97;5013885;28;20211;-67
2023/08/29 06:38:53;;;;;;;8.40;6.90;;;19.70;81.60;;;22.82;51.51;101020.88;5015802;28;20184;-68
2023/08/29 06:41:20;;;;;;;9.50;7.30;;;19.70;81.70;;;22.86;51.29;101018.53;5015598;28;20191;-66
2023/08/29 06:43:47;;;;;;;10.00;7.97;;;19.70;81.90;;;22.92;51.47;101022.88;5015680;28;20195;-69
2023/08/29 06:46:15;;;;;;;7.70;7.03;;;19.80;81.70;;;22.96;51.25;101013.28;4995963;28;20302;-66
2023/08/29 06:48:42;;;;;;;10.53;8.80;;;19.80;81.80;;;23.00;50.99;101013.59;4996354;28;20581;-66
2023/08/29 06:51:10;;;;;;;8.63;6.50;;;19.80;81.60;;;23.02;51.26;101009.59;5015505;28;20314;-66
2023/08/29 06:53:38;;;;;;;9.90;9.00;;;19.90;81.80;;;23.09;51.24;101010.22;5014720;28;20199;-66
2023/08/29 06:56:05;;;;;;;14.23;11.37;;;19.90;81.70;;;23.13;50.97;101007.88;5014722;28;20223;-66
2023/08/29 06:58:32;;;;;;;11.90;8.17;;;20.00;81.60;;;23.15;50.98;101011.91;5020619;28;20195;-66
2023/08/29 07:00:59;;;;;;;8.13;7.20;;;20.00;81.40;;;23.15;50.84;101016.47;5035332;28;20266;-68
2023/08/29 07:03:26;;;;;;;7.20;6.50;;;20.00;81.20;;;23.10;50.95;101025.28;5034703;28;20589;-66
2023/08/29 07:05:54;;;;;;;8.47;7.77;;;20.00;81.40;;;23.05;50.95;101016.34;5034819;28;20210;-66
2023/08/29 07:08:22;;;;;;;8.77;7.63;;;19.90;81.30;;;23.00;51.04;101024.34;5034613;28;20292;-65
2023/08/29 07:10:50;;;;;;;12.40;7.87;;;19.90;81.50;;;22.94;51.10;101019.97;5034320;28;20268;-66
2023/08/29 07:13:17;;;;;;;10.20;8.03;;;19.80;81.60;;;22.87;51.41;101025.50;5006496;28;20310;-67
2023/08/29 07:15:44;;;;;;;8.10;7.03;;;19.80;81.90;;;22.82;51.64;101025.47;5014859;28;20222;-67
2023/08/29 07:18:13;;;;;;;10.73;6.83;;;19.70;82.30;;;22.82;51.75;101025.47;5016015;28;20203;-67
2023/08/29 07:20:40;;;;;;;7.63;6.83;;;19.70;82.70;;;22.86;51.96;101018.53;5013716;28;20267;-66
2023/08/29 07:23:07;;;;;;;9.03;6.83;;;19.70;83.00;;;22.92;52.39;101025.56;5017401;28;20332;-66
2023/08/29 07:25:39;;;;;;;7.47;6.10;;;19.70;82.90;;;22.97;51.99;101028.31;5014612;28;20215;-67
2023/08/29 07:28:11;;;;;;;9.60;8.60;;;19.80;83.20;;;23.08;51.75;101031.97;5025772;28;20229;-66
2023/08/29 07:30:43;;;;;;;7.80;6.17;;;19.80;83.00;;;23.15;51.50;101033.41;5020847;28;20203;-66
2023/08/29 07:33:11;;;;;;;8.67;7.47;;;19.90;82.80;;;23.22;51.55;101038.59;5008875;28;20350;-67
2023/08/29 07:35:39;;;;;;;7.33;6.63;;;20.00;82.20;;;23.24;51.43;101045.34;5013800;28;20227;-67
2023/08/29 07:38:07;;;;;;;10.60;7.70;;;20.00;82.20;;;23.30;51.07;101046.19;5012673;28;20333;-67
2023/08/29 07:40:35;;;;;;;6.73;6.13;;;20.10;82.20;;;23.35;51.04;101052.47;5014720;28;20237;-68
2023/08/29 07:43:06;;;;;;;8.80;7.07;;;20.10;81.40;;;23.36;50.77;101056.00;5014435;28;20207;-66
2023/08/29 07:45:35;;;;;;;7.57;6.40;;;20.20;81.10;;;23.35;50.68;101057.03;5012091;28;20751;-67
2023/08/29 07:48:03;;;;;;;15.83;7.63;;;20.20;81.10;;;23.38;50.47;101048.47;4997208;28;20191;-67
2023/08/29 07:50:31;;;;;;;8.77;7.97;;;20.20;80.60;;;23.39;50.10;101050.91;4994562;28;20215;-67
2023/08/29 07:52:58;;;;;;;7.70;6.33;;;20.20;80.50;;;23.42;50.31;101054.97;4994910;28;20196;-67
2023/08/29 07:55:25;;;;;;;6.60;6.00;;;20.20;80.50;;;23.46;50.09;101053.41;4997066;28;20250;-67
2023/08/29 07:57:52;;;;;;;7.17;6.47;;;20.20;80.70;;;23.50;49.83;101049.97;5012716;28;20564;-67
2023/08/29 08:00:21;;;;;;;7.83;5.10;;;20.30;80.30;;;23.52;49.81;101049.72;5013073;28;20310;-68
2023/08/29 08:02:49;;;;;;;8.53;6.47;;;20.30;80.10;;;23.52;49.78;101057.78;5014821;28;20203;-67
2023/08/29 08:05:16;;;;;;;8.10;6.23;;;20.30;80.10;;;23.50;49.55;101062.59;5009634;28;20245;-67
2023/08/29 08:07:45;;;;;;;4.93;4.53;;;20.30;79.80;;;23.48;49.86;101070.09;5015689;28;20229;-67
2023/08/29 08:10:15;;;;;;;43.30;9.63;;;20.30;80.00;;;23.49;49.60;101058.28;5011611;28;20310;-67
2023/08/29 08:12:42;;;;;;;10.40;6.07;;;20.30;79.80;;;23.52;49.57;101060.47;5013947;28;20259;-67
2023/08/29 08:15:10;;;;;;;7.30;5.53;;;20.30;79.80;;;23.53;49.22;101060.19;5013199;28;20210;-68
2023/08/29 08:17:38;;;;;;;7.33;6.10;;;20.30;79.70;;;23.58;49.38;101051.41;5013725;28;20210;-67
2023/08/29 08:20:09;;;;;;;6.80;5.33;;;20.30;79.80;;;23.62;49.50;101049.84;5019271;28;20187;-67
2023/08/29 08:22:39;;;;;;;8.70;5.60;;;20.40;79.80;;;23.70;49.36;101051.25;5019862;28;20578;-66
2023/08/29 08:25:09;;;;;;;7.53;5.63;;;20.40;79.70;;;23.75;49.31;101048.63;5014963;28;20297;-66
2023/08/29 08:27:36;;;;;;;6.23;5.13;;;20.50;79.60;;;23.80;49.11;101046.78;5010559;28;20258;-66
2023/08/29 08:30:05;;;;;;;33.97;30.83;;;20.50;79.60;;;23.89;49.19;101050.63;5011464;28;20329;-67
2023/08/29 08:32:36;;;;;;;5.63;4.20;;;20.60;79.10;;;23.95;48.53;101049.63;5006963;28;20540;-67
2023/08/29 08:35:08;;;;;;;5.10;3.63;;;20.70;78.80;;;24.04;48.92;101060.72;4992432;28;20700;-66
2023/08/29 08:37:35;;;;;;;3.93;3.53;;;20.70;78.70;;;24.09;48.84;101058.94;5010260;28;20543;-65
2023/08/29 08:40:09;;;;;;;2.87;2.60;;;20.80;78.40;;;24.18;48.16;101065.47;5012732;28;20235;-67
2023/08/29 08:42:39;;;;;;;4.87;2.67;;;20.90;77.60;;;24.25;47.45;101064.47;5012066;28;20186;-66
2023/08/29 08:45:08;;;;;;;7.70;6.57;;;20.90;76.90;;;24.33;47.12;101061.28;5007889;28;20584;-66
2023/08/29 08:47:36;;;;;;;4.47;3.20;;;21.00;77.20;;;24.40;46.77;101067.25;5012474;28;20306;-66
2023/08/29 08:50:08;;;;;;;3.67;2.73;;;21.10;76.40;;;24.48;46.80;101070.28;5012066;28;20211;-66
2023/08/29 08:52:39;;;;;;;2.60;2.07;;;21.10;76.60;;;24.58;46.85;101064.19;5012537;28;20541;-67
2023/08/29 08:55:07;;;;;;;3.80;3.30;;;21.20;76.80;;;24.70;46.74;101062.06;5012793;28;20226;-67
2023/08/29 08:57:35;;;;;;;4.23;3.10;;;21.30;76.90;;;24.84;46.51;101055.22;5011377;28;20278;-69
2023/08/29 09:00:06;;;;;;;2.13;1.93;;;21.40;76.20;;;24.95;46.50;101054.19;5014158;28;20207;-66
2023/08/29 09:02:35;;;;;;;13.43;11.10;;;21.50;75.50;;;25.06;45.49;101055.84;5024950;28;20214;-67
2023/08/29 09:05:03;;;;;;;4.50;3.20;;;21.60;75.20;;;25.17;45.92;101054.84;5005591;28;20770;-67
2023/08/29 09:07:30;;;;;;;2.50;2.17;;;21.70;74.90;;;25.25;44.88;101065.09;5011683;28;20274;-67
2023/08/29 09:10:10;;;;;;;2.27;2.07;;;21.80;74.40;;;25.18;45.17;101061.84;5011071;28;20203;-66
2023/08/29 09:12:47;;;;;;;2.57;2.13;;;21.80;73.80;;;25.16;45.05;101066.69;5013212;28;20226;-69
2023/08/29 09:15:19;;;;;;;2.47;2.27;;;21.90;73.60;;;25.20;45.15;101062.38;5012721;28;20727;-67
2023/08/29 09:17:48;;;;;;;5.97;2.33;;;21.90;73.80;;;25.28;44.58;101064.59;5013596;28;20458;-68
2023/08/29 09:20:16;;;;;;;2.20;1.70;;;21.90;73.50;;;25.42;44.75;101068.41;5009816;28;20230;-67
2023/08/29 09:22:45;;;;;;;2.37;2.03;;;21.90;73.60;;;25.57;44.04;101070.38;5013201;28;20242;-67
2023/08/29 09:25:14;;;;;;;2.83;1.83;;;22.00;73.40;;;25.71;43.96;101067.97;5018906;28;20253;-67
2023/08/29 09:27:44;;;;;;;3.17;2.20;;;22.10;73.00;;;25.85;43.79;101063.69;5011762;28;20235;-67
2023/08/29 09:30:14;;;;;;;2.40;1.77;;;22.10;72.90;;;25.99;43.41;101068.31;5012436;28;20234;-67
2023/08/29 09:32:43;;;;;;;2.87;2.67;;;22.20;72.30;;;26.10;43.03;101077.25;5011127;28;20278;-67
2023/08/29 09:35:14;;;;;;;2.50;2.20;;;22.30;72.00;;;26.19;43.01;101075.66;5009035;28;20219;-67
2023/08/29 09:37:46;;;;;;;3.00;2.00;;;22.30;71.40;;;26.20;42.58;101061.06;5014272;28;20215;-67
2023/08/29 09:40:17;;;;;;;2.17;1.60;;;22.40;71.40;;;26.24;42.67;101072.94;5012175;28;20226;-67
2023/08/29 09:43:04;;;;;;;3.10;2.33;;;22.50;70.80;;;26.35;42.75;101074.56;5015407;28;20545;-66
2023/08/29 09:45:33;;;;;;;3.37;2.57;;;22.50;71.10;;;26.46;42.51;101070.75;5014462;28;20302;-67
2023/08/29 09:48:02;;;;;;;4.37;2.87;;;22.60;71.00;;;26.52;42.25;101069.69;5014795;28;20272;-66
2023/08/29 09:50:31;;;;;;;2.90;2.70;;;22.70;70.30;;;26.52;41.76;101075.09;5015139;28;20226;-67
2023/08/29 09:53:00;;;;;;;3.77;2.37;;;22.70;69.60;;;26.49;41.63;101064.84;5015179;28;20219;-67
2023/08/29 09:55:34;;;;;;;7.10;6.40;;;22.80;69.70;;;26.55;41.70;101066.47;5011581;28;20918;-68
2023/08/29 09:58:04;;;;;;;2.60;2.40;;;22.80;70.10;;;26.66;41.48;101070.75;5013437;28;20599;-67
2023/08/29 10:00:35;;;;;;;3.77;2.73;;;22.90;69.80;;;26.69;41.13;101064.00;5015407;28;20280;-66
2023/08/29 10:03:08;;;;;;;7.83;3.50;;;23.00;69.30;;;26.60;41.15;101061.03;5015897;28;20195;-67
2023/08/29 10:05:38;;;;;;;4.43;3.30;;;23.00;68.60;;;26.57;41.69;101061.59;5010134;28;20575;-67
2023/08/29 10:08:15;;;;;;;7.03;6.33;;;23.00;68.80;;;26.64;41.25;101056.72;5012429;28;20406;-67
2023/08/29 10:10:44;;;;;;;3.73;3.37;;;23.00;69.20;;;26.86;41.24;101054.50;5002573;28;20219;-67
2023/08/29 10:13:12;;;;;;;3.17;2.87;;;23.10;68.90;;;27.05;40.79;101048.53;5013909;28;20644;-67
2023/08/29 10:15:42;;;;;;;3.67;2.40;;;23.10;68.60;;;27.20;40.66;101043.88;5008337;28;20226;-68
2023/08/29 10:18:11;;;;;;;3.30;3.00;;;23.20;68.30;;;27.31;40.03;101042.75;5011485;28;20187;-67